Time;durP1;ratioP1;P1;durP2;ratioP2;P2;SDS_P1;SDS_P2;PMS_P1;PMS_P2;Temp;Humidity;BMP_temperature;BMP_pressure;BME280_temperature;BME280_humidity;BME280_pressure;Samples;Min_cycle;Max_cycle;Signal;HPM_P1;HPM_P2
2022/05/09 00:00:30;;;;;;;7.53;2.33;;;11.50;99.90;;;;;;4833826;28;10001305;-71
2022/05/09 00:02:57;;;;;;;8.65;2.38;;;11.50;99.90;;;;;;4953471;28;20251;-70
2022/05/09 00:05:26;;;;;;;7.50;2.75;;;11.40;99.90;;;;;;4963896;28;20256;-71
2022/05/09 00:07:52;;;;;;;6.47;1.98;;;11.40;99.90;;;;;;4959074;28;20031;-70
2022/05/09 00:10:23;;;;;;;7.28;2.45;;;11.40;99.90;;;;;;4955964;28;20042;-71
2022/05/09 00:12:49;;;;;;;7.78;2.25;;;11.40;99.90;;;;;;4958295;28;20027;-71
2022/05/09 00:15:16;;;;;;;12.15;2.65;;;11.30;99.90;;;;;;4967231;28;20035;-71
2022/05/09 00:17:45;;;;;;;9.95;2.88;;;11.30;99.90;;;;;;4960857;28;20502;-70
2022/05/09 00:20:11;;;;;;;7.38;2.80;;;11.30;99.90;;;;;;4960114;28;20113;-71
2022/05/09 00:22:45;;;;;;;5.13;2.42;;;11.30;99.90;;;;;;4961364;28;20045;-71
2022/05/09 00:25:11;;;;;;;8.55;2.70;;;11.20;99.90;;;;;;4961081;28;20019;-70
2022/05/09 00:27:37;;;;;;;11.55;2.42;;;11.20;99.90;;;;;;4966380;28;20030;-71
2022/05/09 00:30:03;;;;;;;10.43;2.88;;;11.20;99.90;;;;;;4964555;28;20029;-71
2022/05/09 00:32:28;;;;;;;5.30;2.40;;;11.20;99.90;;;;;;4956449;28;20028;-71
2022/05/09 00:34:54;;;;;;;7.10;2.50;;;11.10;99.90;;;;;;4955372;28;20134;-70
2022/05/09 00:37:19;;;;;;;6.60;2.60;;;11.10;99.90;;;;;;4960972;28;20027;-71
2022/05/09 00:39:46;;;;;;;10.23;3.20;;;11.10;99.90;;;;;;4961658;28;20019;-70
2022/05/09 00:42:13;;;;;;;8.15;2.47;;;11.10;99.90;;;;;;4963308;28;20115;-71
2022/05/09 00:44:40;;;;;;;11.10;2.70;;;11.10;99.90;;;;;;4963689;28;20106;-71
2022/05/09 00:47:05;;;;;;;7.15;2.97;;;11.10;99.90;;;;;;4957007;28;20553;-71
2022/05/09 00:49:45;;;;;;;8.63;2.95;;;11.00;99.90;;;;;;4965362;28;20062;-71
2022/05/09 00:52:19;;;;;;;7.03;2.92;;;11.00;99.90;;;;;;4952916;28;22070;-70
2022/05/09 00:54:49;;;;;;;6.57;2.53;;;11.00;99.90;;;;;;4950814;28;20035;-71
2022/05/09 00:57:26;;;;;;;6.72;2.60;;;10.90;99.90;;;;;;4956372;28;20043;-71
2022/05/09 00:59:57;;;;;;;4.43;2.50;;;10.90;99.90;;;;;;4958257;28;20041;-71
2022/05/09 01:02:23;;;;;;;9.88;2.92;;;10.80;99.90;;;;;;4956773;28;20046;-71
2022/05/09 01:04:54;;;;;;;8.07;2.83;;;10.80;99.90;;;;;;4959152;28;20614;-70
2022/05/09 01:07:20;;;;;;;6.75;2.55;;;10.80;99.90;;;;;;4954270;28;20130;-71
2022/05/09 01:09:46;;;;;;;5.68;2.60;;;10.80;99.90;;;;;;4958353;28;20038;-71
2022/05/09 01:12:15;;;;;;;8.70;2.53;;;10.80;99.90;;;;;;4960205;28;20394;-71
2022/05/09 01:14:40;;;;;;;6.95;2.60;;;10.80;99.90;;;;;;4955684;28;20082;-71
2022/05/09 01:17:09;;;;;;;9.65;2.67;;;10.70;99.90;;;;;;4969963;28;20034;-70
2022/05/09 01:19:38;;;;;;;7.40;2.47;;;10.70;99.90;;;;;;4962685;28;20470;-71
2022/05/09 01:22:17;;;;;;;7.35;2.30;;;10.70;99.90;;;;;;4957434;28;20424;-70
2022/05/09 01:24:43;;;;;;;7.15;2.55;;;10.70;99.90;;;;;;4960535;28;20196;-71
2022/05/09 01:27:09;;;;;;;11.30;2.83;;;10.70;99.90;;;;;;4960739;28;20506;-71
2022/05/09 01:30:00;;;;;;;9.55;2.58;;;10.70;99.90;;;;;;4963062;28;20031;-70
2022/05/09 01:32:57;;;;;;;8.32;3.10;;;10.70;99.90;;;;;;4956619;28;20027;-71
2022/05/09 01:35:55;;;;;;;8.95;3.42;;;10.70;99.90;;;;;;4954065;28;20479;-71
2022/05/09 01:38:30;;;;;;;6.03;2.90;;;10.70;99.90;;;;;;4929428;28;20051;-71
2022/05/09 01:41:02;;;;;;;5.85;2.75;;;10.60;99.90;;;;;;4954058;28;20454;-71
2022/05/09 01:43:36;;;;;;;8.18;3.00;;;10.60;99.90;;;;;;4960423;28;20039;-70
2022/05/09 01:46:07;;;;;;;10.50;2.90;;;10.60;99.90;;;;;;4968799;28;21011;-71
2022/05/09 01:51:17;;;;;;;11.43;2.95;;;10.50;99.90;;;;;;4951669;28;20487;-70
2022/05/09 01:53:49;;;;;;;5.97;3.00;;;10.50;99.90;;;;;;4965731;28;20034;-71
2022/05/09 01:56:15;;;;;;;4.88;2.63;;;10.50;99.90;;;;;;4967642;28;20031;-71
2022/05/09 01:58:40;;;;;;;9.52;3.10;;;10.40;99.90;;;;;;4962694;28;20037;-71
2022/05/09 02:01:07;;;;;;;11.73;3.75;;;10.30;99.90;;;;;;4957892;28;20030;-71
2022/05/09 02:03:33;;;;;;;8.00;3.08;;;10.30;99.90;;;;;;4958916;28;20031;-71
2022/05/09 02:06:00;;;;;;;7.38;3.13;;;10.20;99.90;;;;;;4957045;28;20023;-71
2022/05/09 02:08:25;;;;;;;7.75;3.08;;;10.20;99.90;;;;;;4963237;28;20113;-72
2022/05/09 02:10:51;;;;;;;9.98;3.28;;;10.20;99.90;;;;;;4949881;28;20572;-71
2022/05/09 02:13:16;;;;;;;10.48;3.08;;;10.20;99.90;;;;;;4967022;28;20058;-71
2022/05/09 02:15:42;;;;;;;9.55;3.30;;;10.20;99.90;;;;;;4965355;28;20042;-71
2022/05/09 02:18:07;;;;;;;6.55;2.92;;;10.10;99.90;;;;;;4967299;28;20467;-71
2022/05/09 02:20:33;;;;;;;5.32;2.72;;;10.10;99.90;;;;;;4953527;28;20038;-71
2022/05/09 02:22:59;;;;;;;7.80;2.92;;;10.10;99.90;;;;;;4967083;28;20210;-71
2022/05/09 02:25:29;;;;;;;8.55;2.90;;;10.10;99.90;;;;;;4966584;28;20118;-71
2022/05/09 02:28:01;;;;;;;8.70;3.25;;;10.10;99.90;;;;;;4970299;28;20034;-71
2022/05/09 02:30:28;;;;;;;9.77;3.23;;;10.00;99.90;;;;;;4957218;28;20502;-70
2022/05/09 02:32:53;;;;;;;9.60;3.33;;;10.00;99.90;;;;;;4956154;28;20067;-70
2022/05/09 02:35:22;;;;;;;9.43;3.17;;;9.90;99.90;;;;;;4963625;28;20062;-71
2022/05/09 02:37:49;;;;;;;6.78;2.83;;;9.90;99.90;;;;;;4968467;28;20070;-71
2022/05/09 02:40:17;;;;;;;7.05;3.08;;;9.80;99.90;;;;;;4964104;28;20019;-71
2022/05/09 02:42:43;;;;;;;9.05;3.35;;;9.80;99.90;;;;;;4957778;28;20054;-71
2022/05/09 02:45:10;;;;;;;8.63;3.13;;;9.80;99.90;;;;;;4965657;28;20056;-71
2022/05/09 02:47:35;;;;;;;13.55;3.10;;;9.70;99.90;;;;;;4968569;28;20037;-71
2022/05/09 02:50:01;;;;;;;9.45;3.20;;;9.70;99.90;;;;;;4964802;28;20043;-71
2022/05/09 02:52:27;;;;;;;10.65;3.75;;;9.70;99.90;;;;;;4964857;28;20101;-71
2022/05/09 02:54:52;;;;;;;6.45;2.72;;;9.60;99.90;;;;;;4957584;28;20476;-71
2022/05/09 02:57:18;;;;;;;7.75;3.30;;;9.60;99.90;;;;;;4958225;28;20380;-71
2022/05/09 02:59:44;;;;;;;9.00;3.13;;;9.60;99.90;;;;;;4965831;28;20022;-71
2022/05/09 03:02:10;;;;;;;7.80;3.10;;;9.60;99.90;;;;;;4968363;28;20038;-71
2022/05/09 03:04:39;;;;;;;10.80;3.50;;;9.60;99.90;;;;;;4968380;28;20019;-71
2022/05/09 03:07:09;;;;;;;8.23;3.22;;;9.60;99.90;;;;;;4963918;28;20031;-71
2022/05/09 03:09:35;;;;;;;8.98;3.45;;;9.60;99.90;;;;;;4965039;28;20035;-71
2022/05/09 03:12:02;;;;;;;7.05;3.28;;;9.60;99.90;;;;;;4959463;28;20027;-71
2022/05/09 03:14:27;;;;;;;10.27;3.60;;;9.60;99.90;;;;;;4945212;28;20077;-71
2022/05/09 03:16:53;;;;;;;8.65;3.50;;;9.60;99.90;;;;;;4965748;28;20627;-71
2022/05/09 03:19:19;;;;;;;9.35;3.85;;;9.50;99.90;;;;;;4962151;28;20031;-71
2022/05/09 03:21:45;;;;;;;6.57;3.33;;;9.50;99.90;;;;;;4960645;28;20486;-71
2022/05/09 03:24:10;;;;;;;9.77;3.55;;;9.50;99.90;;;;;;4961187;28;20019;-71
2022/05/09 03:26:36;;;;;;;8.60;3.83;;;9.50;99.90;;;;;;4966516;28;20412;-71
2022/05/09 03:29:02;;;;;;;6.45;3.40;;;9.50;99.90;;;;;;4964048;28;20027;-70
2022/05/09 03:31:29;;;;;;;9.98;3.60;;;9.50;99.90;;;;;;4958112;28;20046;-71
2022/05/09 03:33:55;;;;;;;9.55;3.60;;;9.50;99.90;;;;;;4956750;28;20050;-71
2022/05/09 03:36:20;;;;;;;9.15;3.30;;;9.50;99.90;;;;;;4962375;28;20490;-71
2022/05/09 03:38:46;;;;;;;8.90;3.60;;;9.50;99.90;;;;;;4966606;28;20077;-71
2022/05/09 03:41:11;;;;;;;9.52;3.50;;;9.50;99.90;;;;;;4956247;28;20027;-71
2022/05/09 03:43:37;;;;;;;9.20;3.40;;;9.50;99.90;;;;;;4963889;28;20018;-71
2022/05/09 03:46:03;;;;;;;11.85;4.15;;;9.50;99.90;;;;;;4965153;28;20027;-70
2022/05/09 03:48:28;;;;;;;8.70;3.25;;;9.50;99.90;;;;;;4966198;28;20082;-70
2022/05/09 03:50:56;;;;;;;7.78;3.25;;;9.50;99.90;;;;;;4959806;28;20062;-70
2022/05/09 03:53:23;;;;;;;9.25;3.45;;;9.50;99.90;;;;;;4965012;28;20121;-71
2022/05/09 03:55:49;;;;;;;11.10;3.80;;;9.40;99.90;;;;;;4965608;28;20034;-70
2022/05/09 03:58:15;;;;;;;9.07;4.22;;;9.50;99.90;;;;;;4965534;28;20054;-70
2022/05/09 04:00:41;;;;;;;10.30;3.83;;;9.50;99.90;;;;;;4964096;28;20042;-70
2022/05/09 04:03:07;;;;;;;8.50;3.85;;;9.40;99.90;;;;;;4965226;28;20507;-71
2022/05/09 04:05:34;;;;;;;9.90;3.95;;;9.40;99.90;;;;;;4951055;28;20080;-71
2022/05/09 04:08:02;;;;;;;12.32;4.07;;;9.40;99.90;;;;;;4963890;28;20065;-71
2022/05/09 04:10:31;;;;;;;5.72;3.63;;;9.40;99.90;;;;;;4958708;28;20038;-71
2022/05/09 04:12:57;;;;;;;9.35;3.60;;;9.40;99.90;;;;;;4947063;28;20035;-71
2022/05/09 04:18:08;;;;;;;7.40;3.38;;;9.40;99.90;;;;;;4958461;28;20034;-71
2022/05/09 04:20:35;;;;;;;11.30;3.80;;;9.50;99.90;;;;;;4962179;28;20081;-71
2022/05/09 04:23:00;;;;;;;8.05;3.17;;;9.50;99.90;;;;;;4957386;28;20022;-71
2022/05/09 04:25:27;;;;;;;7.78;3.60;;;9.50;99.90;;;;;;4965998;28;20031;-71
2022/05/09 04:27:54;;;;;;;8.20;3.42;;;9.50;99.90;;;;;;4967717;28;20029;-71
2022/05/09 04:30:20;;;;;;;8.10;3.40;;;9.50;99.90;;;;;;4957974;28;20417;-71
2022/05/09 04:32:45;;;;;;;11.02;3.60;;;9.60;99.90;;;;;;4962057;28;20022;-71
2022/05/09 04:35:17;;;;;;;12.70;3.65;;;9.60;99.90;;;;;;4961142;28;20062;-71
2022/05/09 04:37:47;;;;;;;7.75;3.10;;;9.60;99.90;;;;;;4949131;28;20115;-71
2022/05/09 04:40:17;;;;;;;7.07;3.10;;;9.70;99.90;;;;;;4952641;28;20746;-71
2022/05/09 04:42:43;;;;;;;11.02;3.53;;;9.70;99.90;;;;;;4950444;28;20037;-71
2022/05/09 04:45:10;;;;;;;11.52;3.50;;;9.80;99.90;;;;;;4961057;28;20011;-71
2022/05/09 04:47:36;;;;;;;9.82;3.63;;;9.90;99.90;;;;;;4961325;28;20097;-71
2022/05/09 04:50:02;;;;;;;7.78;3.35;;;10.10;99.90;;;;;;4613869;28;10000234;-71
2022/05/09 04:52:28;;;;;;;7.43;3.75;;;10.20;99.90;;;;;;4958005;28;20049;-70
2022/05/09 04:54:54;;;;;;;6.50;3.10;;;10.30;99.90;;;;;;4955054;28;20427;-71
2022/05/09 04:57:20;;;;;;;9.48;3.30;;;10.30;99.90;;;;;;4962705;28;20038;-70
2022/05/09 04:59:45;;;;;;;9.10;3.00;;;10.40;99.90;;;;;;4959784;28;20559;-69
2022/05/09 05:02:11;;;;;;;8.40;3.00;;;10.40;99.90;;;;;;4957719;28;20018;-70
2022/05/09 05:04:36;;;;;;;6.88;3.33;;;10.40;99.90;;;;;;4959154;28;20038;-69
2022/05/09 05:07:02;;;;;;;5.80;3.13;;;10.40;99.90;;;;;;4958634;28;20035;-69
2022/05/09 05:09:30;;;;;;;9.68;3.60;;;10.40;99.90;;;;;;4958370;28;20234;-70
2022/05/09 05:11:56;;;;;;;11.07;3.45;;;10.40;99.90;;;;;;4957528;28;20038;-70
2022/05/09 05:14:22;;;;;;;8.75;3.10;;;10.50;99.90;;;;;;4954734;28;20062;-70
2022/05/09 05:16:59;;;;;;;11.23;3.30;;;10.50;99.90;;;;;;4958778;28;20114;-70
2022/05/09 05:19:35;;;;;;;8.23;3.30;;;10.50;99.90;;;;;;4951877;28;20032;-70
2022/05/09 05:22:02;;;;;;;4.43;3.08;;;10.50;99.90;;;;;;4944644;28;20027;-70
2022/05/09 05:24:31;;;;;;;9.93;3.65;;;10.50;99.90;;;;;;4963696;28;20037;-70
2022/05/09 05:26:57;;;;;;;8.95;3.17;;;10.50;99.90;;;;;;4965016;28;20102;-70
2022/05/09 05:29:23;;;;;;;9.25;3.35;;;10.50;99.90;;;;;;4966485;28;20120;-70
2022/05/09 05:31:50;;;;;;;7.28;3.25;;;10.60;99.90;;;;;;4955960;28;20075;-71
2022/05/09 05:34:16;;;;;;;11.18;3.47;;;10.60;99.90;;;;;;4966650;28;20038;-70
2022/05/09 05:36:41;;;;;;;8.65;3.38;;;10.60;99.90;;;;;;4963180;28;20027;-70
2022/05/09 05:39:09;;;;;;;7.85;3.45;;;10.70;99.90;;;;;;4961796;28;20427;-71
2022/05/09 05:41:35;;;;;;;10.70;3.63;;;10.70;99.90;;;;;;4960908;28;20038;-70
2022/05/09 05:44:01;;;;;;;13.10;3.45;;;10.70;99.90;;;;;;4965542;28;20803;-71
2022/05/09 05:46:27;;;;;;;8.57;3.47;;;10.80;99.90;;;;;;4963844;28;20147;-71
2022/05/09 05:48:52;;;;;;;10.05;3.80;;;10.90;99.90;;;;;;4964947;28;20019;-71
2022/05/09 05:51:21;;;;;;;8.75;3.55;;;11.00;99.90;;;;;;4965140;28;20038;-71
2022/05/09 05:53:48;;;;;;;8.15;3.40;;;11.00;99.90;;;;;;4967412;28;20033;-71
2022/05/09 05:56:13;;;;;;;8.68;3.65;;;11.10;99.90;;;;;;4964674;28;20113;-71
2022/05/09 05:58:39;;;;;;;9.35;3.20;;;11.20;99.90;;;;;;4963187;28;20169;-71
2022/05/09 06:01:05;;;;;;;8.50;3.45;;;11.20;99.90;;;;;;4966007;28;20495;-71
2022/05/09 06:03:31;;;;;;;9.77;3.60;;;11.20;99.90;;;;;;4960904;28;20027;-71
2022/05/09 06:05:56;;;;;;;11.82;3.33;;;11.30;99.90;;;;;;4966765;28;20479;-70
2022/05/09 06:08:22;;;;;;;7.43;3.38;;;11.30;99.90;;;;;;4965140;28;20031;-71
2022/05/09 06:10:47;;;;;;;10.18;3.60;;;11.30;99.90;;;;;;4963204;28;20059;-70
2022/05/09 06:13:13;;;;;;;8.15;3.72;;;11.30;99.90;;;;;;4965149;28;20518;-70
2022/05/09 06:15:41;;;;;;;9.15;3.80;;;11.30;99.90;;;;;;4966206;28;20034;-70
2022/05/09 06:18:09;;;;;;;9.82;3.78;;;11.30;99.90;;;;;;4967444;28;20045;-70
2022/05/09 06:20:37;;;;;;;12.02;3.72;;;11.30;99.90;;;;;;4960060;28;20118;-70
2022/05/09 06:23:04;;;;;;;7.28;3.38;;;11.40;99.90;;;;;;4964828;28;20603;-70
2022/05/09 06:25:31;;;;;;;8.20;3.80;;;11.50;99.90;;;;;;4961379;28;20031;-70
2022/05/09 06:28:01;;;;;;;9.38;3.70;;;11.60;99.90;;;;;;4960763;28;20027;-70
2022/05/09 06:30:27;;;;;;;9.52;3.60;;;11.60;99.90;;;;;;4953409;28;20034;-71
2022/05/09 06:32:54;;;;;;;9.25;3.60;;;11.60;99.90;;;;;;4958055;28;20035;-71
2022/05/09 06:35:25;;;;;;;13.35;4.00;;;11.70;99.90;;;;;;4953792;28;20038;-70
2022/05/09 06:37:57;;;;;;;11.20;4.07;;;11.80;99.90;;;;;;4960539;28;20038;-71
2022/05/09 06:40:23;;;;;;;12.70;4.05;;;11.90;99.90;;;;;;4961200;28;20110;-70
2022/05/09 06:42:51;;;;;;;10.38;4.00;;;12.10;99.90;;;;;;4965879;28;20118;-71
2022/05/09 06:45:17;;;;;;;11.05;3.90;;;12.30;99.90;;;;;;4965261;28;20081;-71
2022/05/09 06:47:47;;;;;;;15.27;4.10;;;12.60;99.90;;;;;;4959744;28;20096;-70
2022/05/09 06:50:13;;;;;;;8.60;3.70;;;12.90;99.90;;;;;;4971094;28;20590;-71
2022/05/09 06:52:39;;;;;;;7.63;3.42;;;13.20;99.90;;;;;;4966145;28;20034;-70
2022/05/09 06:55:05;;;;;;;9.18;3.88;;;13.50;99.90;;;;;;4961668;28;20062;-71
2022/05/09 06:57:33;;;;;;;6.57;3.10;;;13.80;99.90;;;;;;4962031;28;20419;-72
2022/05/09 06:59:58;;;;;;;8.65;3.80;;;14.10;99.90;;;;;;4957430;28;20455;-71
2022/05/09 07:02:24;;;;;;;12.15;3.40;;;14.40;99.90;;;;;;4958968;28;22444;-71
2022/05/09 07:04:50;;;;;;;8.85;3.00;;;14.60;99.90;;;;;;4954174;28;20060;-72
2022/05/09 07:07:15;;;;;;;8.65;3.42;;;14.80;99.90;;;;;;4957796;28;20035;-72
2022/05/09 07:09:41;;;;;;;9.13;3.40;;;15.00;99.90;;;;;;4965853;28;20034;-72
2022/05/09 07:12:07;;;;;;;5.75;3.00;;;15.20;99.90;;;;;;4960738;28;20562;-72
2022/05/09 07:14:32;;;;;;;5.60;3.03;;;15.40;99.90;;;;;;4962544;28;20031;-71
2022/05/09 07:16:58;;;;;;;8.65;2.83;;;15.50;99.90;;;;;;4966176;28;20030;-72
2022/05/09 07:19:24;;;;;;;7.28;2.90;;;15.70;99.90;;;;;;4959196;28;20339;-72
2022/05/09 07:21:49;;;;;;;5.90;2.47;;;15.80;99.90;;;;;;4959242;28;20026;-72
2022/05/09 07:24:15;;;;;;;8.93;2.95;;;16.00;99.90;;;;;;4966455;28;20387;-72
2022/05/09 07:26:41;;;;;;;7.45;2.90;;;16.10;99.90;;;;;;4959074;28;20034;-71
2022/05/09 07:29:09;;;;;;;8.68;2.63;;;16.30;99.90;;;;;;4961998;28;20038;-71
2022/05/09 07:31:35;;;;;;;6.70;2.50;;;16.40;97.70;;;;;;4956633;28;20031;-71
2022/05/09 07:34:00;;;;;;;7.55;2.85;;;16.50;98.40;;;;;;4957249;28;20042;-71
2022/05/09 07:36:26;;;;;;;5.50;2.60;;;16.70;97.50;;;;;;4959814;28;20045;-71
2022/05/09 07:38:52;;;;;;;7.60;2.85;;;16.80;97.10;;;;;;4958198;28;20066;-71
2022/05/09 07:41:18;;;;;;;10.32;2.90;;;16.90;95.60;;;;;;4961363;28;20859;-72
2022/05/09 07:43:43;;;;;;;9.18;2.78;;;17.10;96.10;;;;;;4962717;28;20093;-72
2022/05/09 07:46:09;;;;;;;7.00;2.42;;;17.20;94.90;;;;;;4945846;28;20845;-71
2022/05/09 07:48:34;;;;;;;8.90;2.33;;;17.40;94.20;;;;;;4961092;28;20093;-71
2022/05/09 07:51:01;;;;;;;5.50;2.38;;;17.50;92.90;;;;;;4958227;28;20077;-72
2022/05/09 07:53:31;;;;;;;5.88;2.05;;;17.50;91.10;;;;;;4951876;28;20039;-72
2022/05/09 07:55:56;;;;;;;5.88;2.35;;;17.70;91.20;;;;;;4960434;28;20038;-72
2022/05/09 07:58:23;;;;;;;9.60;2.65;;;17.90;90.90;;;;;;4957584;28;20027;-71
2022/05/09 08:00:50;;;;;;;7.35;2.15;;;18.00;90.10;;;;;;4955826;28;20039;-72
2022/05/09 08:03:19;;;;;;;4.40;2.22;;;18.20;90.00;;;;;;4960456;28;20483;-72
2022/05/09 08:05:46;;;;;;;8.02;2.22;;;18.30;89.20;;;;;;4960182;28;20431;-72
2022/05/09 08:08:12;;;;;;;5.80;2.00;;;18.40;90.20;;;;;;4959929;28;20117;-71
2022/05/09 08:10:39;;;;;;;7.55;2.20;;;18.40;87.60;;;;;;4958630;28;20031;-72
2022/05/09 08:13:06;;;;;;;5.95;2.10;;;18.50;85.30;;;;;;4957945;28;20096;-71
2022/05/09 08:15:32;;;;;;;5.50;2.10;;;18.60;84.80;;;;;;4960751;28;20297;-72
2022/05/09 08:17:59;;;;;;;6.10;1.95;;;18.70;84.60;;;;;;4957527;28;20054;-71
2022/05/09 08:20:25;;;;;;;7.80;2.20;;;18.90;83.90;;;;;;4959222;28;20031;-71
2022/05/09 08:23:03;;;;;;;8.27;2.10;;;19.00;84.70;;;;;;4954895;28;20082;-72
2022/05/09 08:25:30;;;;;;;9.20;2.00;;;19.10;83.70;;;;;;4957920;28;20037;-72
2022/05/09 08:27:55;;;;;;;6.70;2.10;;;19.30;95.30;;;;;;4959461;28;20042;-71
2022/05/09 08:30:21;;;;;;;6.22;2.05;;;19.30;94.00;;;;;;4954777;28;20419;-72
2022/05/09 08:32:47;;;;;;;5.75;2.08;;;19.40;93.60;;;;;;4961454;28;20081;-71
2022/05/09 08:35:13;;;;;;;5.15;2.03;;;19.40;92.40;;;;;;4964600;28;20034;-72
2022/05/09 08:37:39;;;;;;;5.95;1.58;;;19.40;92.70;;;;;;4958768;28;20058;-72
2022/05/09 08:40:05;;;;;;;6.78;1.85;;;19.40;92.20;;;;;;4963824;28;20030;-73
2022/05/09 08:42:37;;;;;;;4.97;1.95;;;19.50;92.20;;;;;;4953811;28;20545;-72
2022/05/09 08:45:13;;;;;;;6.45;2.20;;;19.70;95.70;;;;;;4963788;28;20022;-72
2022/05/09 08:48:09;;;;;;;7.43;1.90;;;19.70;94.70;;;;;;4956895;28;20049;-72
2022/05/09 08:51:09;;;;;;;5.72;1.85;;;19.80;92.70;;;;;;4953483;28;20049;-72
2022/05/09 08:53:38;;;;;;;6.75;1.60;;;20.00;93.10;;;;;;4950196;28;20038;-72
2022/05/09 08:56:04;;;;;;;6.25;1.95;;;20.20;91.50;;;;;;4968200;28;20172;-72
2022/05/09 08:58:51;;;;;;;5.70;1.88;;;20.20;90.00;;;;;;4966465;28;20162;-72
2022/05/09 09:01:24;;;;;;;5.05;1.98;;;20.40;92.10;;;;;;4965652;28;20554;-72
2022/05/09 09:04:19;;;;;;;4.38;1.83;;;20.40;92.10;;;;;;4963486;28;20030;-72
2022/05/09 09:07:09;;;;;;;4.82;1.90;;;20.50;87.70;;;;;;4944736;28;20487;-71
2022/05/09 09:09:56;;;;;;;4.47;1.70;;;20.60;89.00;;;;;;4969474;28;20030;-72
2022/05/09 09:12:33;;;;;;;3.45;1.88;;;20.80;90.70;;;;;;4961811;28;22555;-72
2022/05/09 09:15:17;;;;;;;6.25;1.75;;;20.80;90.50;;;;;;4962961;28;20046;-72
2022/05/09 09:17:57;;;;;;;5.40;2.17;;;20.80;91.00;;;;;;4966910;28;20577;-72
2022/05/09 09:20:41;;;;;;;4.47;1.98;;;20.90;90.10;;;;;;4957675;28;20035;-71
2022/05/09 09:23:38;;;;;;;7.03;2.28;;;20.90;74.60;;;;;;4960174;28;20641;-72
2022/05/09 09:26:46;;;;;;;7.25;2.58;;;21.00;74.30;;;;;;4960009;28;20035;-72
2022/05/09 09:29:25;;;;;;;5.55;1.83;;;21.10;74.40;;;;;;4951494;28;20015;-72
2022/05/09 09:32:20;;;;;;;4.28;2.10;;;21.30;74.40;;;;;;4962942;28;20031;-73
2022/05/09 09:35:00;;;;;;;6.13;2.15;;;21.40;74.30;;;;;;4953169;28;20042;-72
2022/05/09 09:37:29;;;;;;;5.63;1.80;;;21.30;73.60;;;;;;4959836;28;20031;-72
2022/05/09 09:39:54;;;;;;;6.40;1.90;;;21.30;73.70;;;;;;4951458;28;20451;-72
2022/05/09 09:42:20;;;;;;;5.43;2.10;;;21.40;77.40;;;;;;4964117;28;20031;-72
2022/05/09 09:44:48;;;;;;;6.50;1.95;;;21.50;79.50;;;;;;4961703;28;20053;-72
2022/05/09 09:47:19;;;;;;;5.72;1.90;;;21.50;76.60;;;;;;4966776;28;20035;-72
2022/05/09 09:49:49;;;;;;;4.05;1.73;;;21.70;83.00;;;;;;4967772;28;20529;-72
2022/05/09 09:52:23;;;;;;;7.25;2.20;;;21.70;73.70;;;;;;4962932;28;20042;-72
2022/05/09 09:55:19;;;;;;;4.82;1.70;;;21.80;73.00;;;;;;4951605;29;20480;-72
2022/05/09 09:57:46;;;;;;;3.95;2.03;;;21.80;73.70;;;;;;4937737;28;20101;-73
2022/05/09 10:00:21;;;;;;;6.72;2.45;;;21.80;72.80;;;;;;4965734;28;20031;-72
2022/05/09 10:02:47;;;;;;;4.35;2.30;;;;;;;;;;4950779;28;20024;-72
2022/05/09 10:05:15;;;;;;;6.30;2.03;;;;;;;;;;4964009;28;20842;-72
2022/05/09 10:07:44;;;;;;;7.68;2.15;;;;;;;;;;4966030;28;20053;-72
2022/05/09 10:10:13;;;;;;;5.00;2.22;;;;;;;;;;4963372;28;20333;-72
2022/05/09 10:12:50;;;;;;;7.07;2.28;;;;;;;;;;4963712;28;20039;-72
2022/05/09 10:15:21;;;;;;;5.95;2.15;;;;;;;;;;4969127;28;20085;-73
2022/05/09 10:17:48;;;;;;;4.53;2.10;;;;;;;;;;4968877;28;20184;-72
2022/05/09 10:20:29;;;;;;;4.20;2.03;;;;;;;;;;4966260;28;20062;-72
2022/05/09 10:26:05;;;;;;;5.68;2.22;;;;;;;;;;4965738;28;20121;-73
2022/05/09 10:28:32;;;;;;;6.38;2.70;;;;;;;;;;4959634;28;20035;-72
2022/05/09 10:31:02;;;;;;;7.07;2.30;;;;;;;;;;4956220;28;20484;-72
2022/05/09 10:33:34;;;;;;;6.28;2.33;;;;;;;;;;4960621;28;20483;-72
2022/05/09 10:36:03;;;;;;;4.55;2.42;;;;;;;;;;4958233;28;20023;-73
2022/05/09 10:38:31;;;;;;;10.82;2.40;;;;;;;;;;4962769;28;20035;-71
2022/05/09 10:41:03;;;;;;;5.20;2.50;;;;;;;;;;4961378;28;20042;-71
2022/05/09 10:43:50;;;;;;;4.30;2.55;;;;;;;;;;4952049;28;20093;-71
2022/05/09 10:46:17;;;;;;;7.68;2.45;;;;;;;;;;4960085;28;20067;-71
2022/05/09 10:49:04;;;;;;;7.85;2.88;;;;;;;;;;4963348;28;20521;-72
2022/05/09 10:51:39;;;;;;;5.38;2.60;;;;;;;;;;4954743;28;20086;-71
2022/05/09 10:54:26;;;;;;;3.35;1.98;;;;;;;;;;4962522;28;20553;-71
2022/05/09 10:57:05;;;;;;;5.68;2.50;;;;;;;;;;4964449;28;20046;-71
2022/05/09 10:59:33;;;;;;;5.30;2.50;;;;;;;;;;4966969;28;20031;-72
2022/05/09 11:02:10;;;;;;;3.80;2.10;;;;;;;;;;4958529;28;20027;-71
2022/05/09 11:04:37;;;;;;;6.03;2.75;;;;;;;;;;4958162;28;20035;-72
2022/05/09 11:07:07;;;;;;;5.35;2.42;;;;;;;;;;4960304;28;20027;-71
2022/05/09 11:09:41;;;;;;;5.38;2.85;;;;;;;;;;4957229;28;20034;-72
2022/05/09 11:12:14;;;;;;;5.20;2.35;;;23.30;73.20;;;;;;4956145;28;20035;-72
2022/05/09 11:15:14;;;;;;;6.38;2.60;;;23.30;74.20;;;;;;4964121;28;20582;-72
2022/05/09 11:18:04;;;;;;;6.40;2.47;;;23.30;71.40;;;;;;4960426;28;20868;-71
2022/05/09 11:21:07;;;;;;;6.35;2.15;;;23.30;71.30;;;;;;4959948;28;20031;-71
2022/05/09 11:23:43;;;;;;;5.28;2.42;;;23.30;73.90;;;;;;4960503;28;20030;-71
2022/05/09 11:26:22;;;;;;;5.72;2.40;;;23.50;72.80;;;;;;4959960;28;20031;-71
2022/05/09 11:28:50;;;;;;;4.97;2.40;;;23.50;70.10;;;;;;4961969;28;20026;-71
2022/05/09 11:31:25;;;;;;;5.43;2.80;;;23.50;70.10;;;;;;4958090;28;20030;-71
2022/05/09 11:33:50;;;;;;;6.53;2.40;;;23.50;70.40;;;;;;4964132;28;20039;-72
2022/05/09 11:36:37;;;;;;;4.28;2.50;;;23.40;69.80;;;;;;4956003;28;20038;-71
2022/05/09 11:39:11;;;;;;;5.82;2.70;;;23.50;72.20;;;;;;4962804;28;20077;-71
2022/05/09 11:41:57;;;;;;;5.90;2.28;;;23.50;70.40;;;;;;4954912;28;20491;-71
2022/05/09 11:44:33;;;;;;;3.88;2.30;;;23.60;71.60;;;;;;4959445;28;20088;-72
2022/05/09 11:47:07;;;;;;;5.82;2.25;;;23.70;69.40;;;;;;4955187;28;20641;-71
2022/05/09 11:49:44;;;;;;;;;;;23.90;67.30;;;;;;4967625;28;20134;-71
2022/05/09 11:52:27;;;;;;;9.93;2.60;;;24.00;67.80;;;;;;4962179;28;20309;-71
2022/05/09 11:54:58;;;;;;;4.90;2.30;;;24.20;69.10;;;;;;4955827;28;20680;-71
2022/05/09 11:57:29;;;;;;;5.20;2.22;;;24.20;69.80;;;;;;4957040;28;20126;-72
2022/05/09 11:59:59;;;;;;;3.80;2.00;;;24.20;70.20;;;;;;4961663;28;20261;-72
2022/05/09 12:02:45;;;;;;;6.05;2.28;;;24.20;69.70;;;;;;4964280;28;20495;-72
2022/05/09 12:05:26;;;;;;;3.78;2.30;;;24.40;72.50;;;;;;4961231;28;20019;-72
2022/05/09 12:08:05;;;;;;;3.63;2.10;;;24.60;75.90;;;;;;4959857;28;20023;-71
2022/05/09 12:10:35;;;;;;;5.28;2.13;;;24.60;75.80;;;;;;4962435;28;20031;-71
2022/05/09 12:13:04;;;;;;;2.78;2.00;;;24.70;72.40;;;;;;4955637;28;20039;-72
2022/05/09 12:15:29;;;;;;;4.57;2.10;;;24.90;72.40;;;;;;4963668;28;20023;-71
2022/05/09 12:17:58;;;;;;;5.88;2.03;;;24.90;69.90;;;;;;4963051;28;20172;-72
2022/05/09 12:20:27;;;;;;;5.25;2.28;;;24.90;70.30;;;;;;4960149;28;20407;-72
2022/05/09 12:22:57;;;;;;;4.53;2.15;;;25.10;69.90;;;;;;4959598;28;20527;-72
2022/05/09 12:25:44;;;;;;;4.45;2.25;;;25.10;79.00;;;;;;4955417;28;20760;-72
2022/05/09 12:28:26;;;;;;;3.47;1.90;;;24.80;66.10;;;;;;4952179;28;20027;-72
2022/05/09 12:31:02;;;;;;;4.67;2.40;;;24.60;66.10;;;;;;4961346;28;20031;-72
2022/05/09 12:33:46;;;;;;;4.68;1.83;;;24.70;66.00;;;;;;4951864;28;20286;-72
2022/05/09 12:36:19;;;;;;;3.10;1.85;;;24.80;71.90;;;;;;4959379;28;20133;-72
2022/05/09 12:38:47;;;;;;;4.03;1.90;;;;;;;;;;4960653;28;20027;-71
2022/05/09 12:41:14;;;;;;;6.40;1.88;;;;;;;;;;4956501;28;20042;-72
2022/05/09 12:43:42;;;;;;;3.38;1.90;;;;;;;;;;4958580;28;20384;-72
2022/05/09 12:46:10;;;;;;;3.95;1.98;;;;;;;;;;4956177;28;20105;-72
2022/05/09 12:48:37;;;;;;;4.07;2.10;;;;;;;;;;4954807;28;20039;-72
2022/05/09 12:51:08;;;;;;;4.28;2.03;;;;;;;;;;4957318;28;20043;-71
2022/05/09 12:53:35;;;;;;;5.45;2.00;;;;;;;;;;4950484;28;20550;-71
2022/05/09 12:56:08;;;;;;;3.20;2.20;;;;;;;;;;4960171;28;20573;-72
2022/05/09 12:58:36;;;;;;;6.07;2.20;;;;;;;;;;4961039;28;20056;-72
2022/05/09 13:01:08;;;;;;;3.90;2.10;;;;;;;;;;4951085;28;20418;-72
2022/05/09 13:03:41;;;;;;;4.73;2.10;;;;;;;;;;4950099;28;20043;-71
2022/05/09 13:06:12;;;;;;;5.75;2.10;;;;;;;;;;4955883;28;20037;-71
2022/05/09 13:08:39;;;;;;;3.42;1.80;;;;;;;;;;4964606;28;20702;-72
2022/05/09 13:11:08;;;;;;;4.05;1.98;;;;;;;;;;4948440;28;20050;-72
2022/05/09 13:13:37;;;;;;;3.75;2.15;;;;;;;;;;4958883;28;20031;-71
2022/05/09 13:16:04;;;;;;;3.45;1.90;;;;;;;;;;4956408;28;20402;-72
2022/05/09 13:18:30;;;;;;;5.82;2.22;;;;;;;;;;4953819;28;20030;-72
2022/05/09 13:20:58;;;;;;;5.85;2.20;;;;;;;;;;4965548;28;20031;-72
2022/05/09 13:23:29;;;;;;;3.85;2.03;;;;;;;;;;4950459;28;20039;-72
2022/05/09 13:26:00;;;;;;;7.65;2.25;;;;;;;;;;4954280;28;20023;-72